Time;durP1;ratioP1;P1;durP2;ratioP2;P2;SDS_P1;SDS_P2;PMS_P1;PMS_P2;Temp;Humidity;BMP_temperature;BMP_pressure;BME280_temperature;BME280_humidity;BME280_pressure;Samples;Min_cycle;Max_cycle;Signal;HPM_P1;HPM_P2
2021/09/14 00:00:49;;;;;;;15.47;12.20;;;20.40;99.90;;;;;;5094881;28;20179;-63
2021/09/14 00:03:15;;;;;;;13.00;11.70;;;20.40;99.90;;;;;;5094837;28;20171;-64
2021/09/14 00:05:40;;;;;;;12.10;10.27;;;20.40;99.90;;;;;;5094647;28;20412;-63
2021/09/14 00:08:06;;;;;;;11.77;10.17;;;20.40;99.90;;;;;;5094679;28;20197;-63
2021/09/14 00:10:32;;;;;;;13.20;10.67;;;20.40;99.90;;;;;;5094619;28;20183;-63
2021/09/14 00:12:57;;;;;;;12.10;10.50;;;20.40;99.90;;;;;;5093810;28;20211;-63
2021/09/14 00:15:23;;;;;;;12.53;10.33;;;20.50;99.90;;;;;;5094312;28;20177;-63
2021/09/14 00:17:48;;;;;;;10.93;9.63;;;20.40;99.90;;;;;;5094424;28;20568;-63
2021/09/14 00:20:14;;;;;;;13.23;11.10;;;20.40;99.90;;;;;;5093103;28;20174;-63
2021/09/14 00:22:40;;;;;;;11.63;10.27;;;20.40;99.90;;;;;;5093039;28;20197;-63
2021/09/14 00:25:06;;;;;;;11.77;10.57;;;20.40;99.90;;;;;;5094420;28;20166;-65
2021/09/14 00:27:31;;;;;;;13.53;11.30;;;20.40;99.90;;;;;;5094676;28;20578;-63
2021/09/14 00:29:57;;;;;;;13.83;10.67;;;20.40;99.90;;;;;;5094292;28;20399;-63
2021/09/14 00:32:22;;;;;;;12.33;10.70;;;20.30;99.90;;;;;;5094677;28;20223;-63
2021/09/14 00:34:48;;;;;;;14.73;10.50;;;20.40;99.90;;;;;;5094315;28;20176;-63
2021/09/14 00:37:14;;;;;;;12.10;10.23;;;20.30;99.90;;;;;;5094699;28;20217;-63
2021/09/14 00:39:39;;;;;;;11.07;9.83;;;20.30;99.90;;;;;;5094127;28;20162;-63
2021/09/14 00:42:05;;;;;;;11.60;10.27;;;20.30;99.90;;;;;;5094463;28;20263;-64
2021/09/14 00:44:30;;;;;;;14.03;11.00;;;20.30;99.90;;;;;;5094176;28;20180;-65
2021/09/14 00:46:56;;;;;;;11.67;10.10;;;20.30;99.90;;;;;;5094390;28;20286;-63
2021/09/14 00:49:22;;;;;;;13.20;10.60;;;20.30;99.90;;;;;;5094109;28;20543;-63
2021/09/14 00:51:47;;;;;;;11.73;10.30;;;20.30;99.90;;;;;;5092394;28;20654;-63
2021/09/14 00:54:14;;;;;;;12.17;10.50;;;20.30;99.90;;;;;;5093991;28;20424;-63
2021/09/14 00:56:41;;;;;;;11.70;9.80;;;20.30;99.90;;;;;;5094231;28;20286;-63
2021/09/14 00:59:07;;;;;;;14.77;10.60;;;20.30;99.90;;;;;;5093898;28;20445;-64
2021/09/14 01:01:32;;;;;;;12.90;9.93;;;20.30;99.90;;;;;;5094232;28;20844;-63
2021/09/14 01:03:58;;;;;;;12.30;11.00;;;20.30;99.90;;;;;;5092629;28;20412;-63
2021/09/14 01:06:24;;;;;;;12.90;10.40;;;20.30;99.90;;;;;;5093999;28;20562;-63
2021/09/14 01:08:51;;;;;;;11.60;9.90;;;20.30;99.90;;;;;;5092530;28;20178;-65
2021/09/14 01:11:17;;;;;;;11.70;10.50;;;20.20;99.90;;;;;;5092548;28;20226;-63
2021/09/14 01:13:43;;;;;;;12.37;9.73;;;20.20;99.90;;;;;;5092404;28;20467;-63
2021/09/14 01:16:12;;;;;;;12.07;10.00;;;20.20;99.90;;;;;;5093892;28;20852;-64
2021/09/14 01:18:39;;;;;;;11.13;9.93;;;20.20;99.90;;;;;;5093684;28;20877;-63
2021/09/14 01:21:06;;;;;;;12.57;9.90;;;20.20;99.90;;;;;;5092424;28;21042;-63
2021/09/14 01:23:31;;;;;;;15.10;11.20;;;20.20;99.90;;;;;;5093653;28;20403;-63
2021/09/14 01:25:57;;;;;;;11.70;10.50;;;20.20;99.90;;;;;;5096814;28;20476;-63
2021/09/14 01:28:23;;;;;;;11.93;10.73;;;20.20;99.90;;;;;;5097870;28;20173;-64
2021/09/14 01:30:49;;;;;;;12.70;10.80;;;20.10;99.90;;;;;;5097589;28;20232;-63
2021/09/14 01:33:15;;;;;;;12.53;10.43;;;20.10;99.90;;;;;;5097858;28;20458;-64
2021/09/14 01:35:43;;;;;;;16.03;11.37;;;20.10;99.90;;;;;;5097716;28;20178;-64
2021/09/14 01:38:08;;;;;;;13.10;11.30;;;20.10;99.90;;;;;;5097713;28;20407;-64
2021/09/14 01:40:35;;;;;;;12.87;10.47;;;20.10;99.90;;;;;;5097582;28;20421;-63
2021/09/14 01:43:04;;;;;;;12.53;11.20;;;20.00;99.90;;;;;;5096219;28;20220;-63
2021/09/14 01:45:29;;;;;;;12.40;10.67;;;20.00;99.90;;;;;;5097483;28;20755;-63
2021/09/14 01:47:55;;;;;;;10.90;9.80;;;20.00;99.90;;;;;;5095999;28;20437;-63
2021/09/14 01:50:21;;;;;;;14.63;11.37;;;20.00;99.90;;;;;;5096990;28;20165;-63
2021/09/14 01:52:46;;;;;;;14.60;10.67;;;20.00;99.90;;;;;;5095917;28;20248;-63
2021/09/14 01:55:13;;;;;;;14.43;11.60;;;20.00;99.90;;;;;;5097251;28;20168;-63
2021/09/14 01:57:41;;;;;;;12.37;9.80;;;20.00;99.90;;;;;;5097138;28;20228;-64
2021/09/14 02:00:14;;;;;;;12.93;10.17;;;19.90;99.90;;;;;;5095874;28;20467;-63
2021/09/14 02:02:52;;;;;;;11.07;8.90;;;19.90;99.90;;;;;;5095817;28;20442;-64
2021/09/14 02:59:33;;;;;;;13.93;10.50;;;19.60;99.90;;;;;;5096078;28;20900;-65
2021/09/14 03:01:59;;;;;;;14.03;11.50;;;19.70;99.90;;;;;;5096257;28;20435;-63
2021/09/14 03:04:25;;;;;;;12.77;11.40;;;19.60;99.90;;;;;;5095997;28;20406;-63
2021/09/14 03:06:50;;;;;;;15.13;10.73;;;19.60;99.90;;;;;;5095804;28;20964;-64
2021/09/14 03:09:16;;;;;;;13.90;11.10;;;19.60;99.90;;;;;;5095857;28;20685;-63
2021/09/14 03:11:42;;;;;;;15.20;11.67;;;19.60;99.90;;;;;;5095986;28;20224;-63
2021/09/14 03:14:07;;;;;;;14.17;10.60;;;19.60;99.90;;;;;;5095419;28;20205;-64
2021/09/14 03:16:34;;;;;;;14.23;11.47;;;19.50;99.90;;;;;;5094340;28;20653;-65
2021/09/14 03:19:00;;;;;;;13.60;10.50;;;19.50;99.90;;;;;;5094327;28;20645;-63
2021/09/14 03:21:25;;;;;;;15.10;11.77;;;19.50;99.90;;;;;;5094211;28;20462;-64
2021/09/14 03:23:51;;;;;;;13.87;10.63;;;19.50;99.90;;;;;;5095493;28;20629;-64
2021/09/14 03:26:17;;;;;;;12.53;11.17;;;19.40;99.90;;;;;;5095677;28;20710;-63
2021/09/14 03:28:42;;;;;;;15.87;11.20;;;19.40;99.90;;;;;;5095450;28;20175;-63
2021/09/14 03:31:08;;;;;;;15.00;10.87;;;19.40;99.90;;;;;;5095540;28;20444;-63
2021/09/14 03:33:34;;;;;;;13.67;10.47;;;19.40;99.90;;;;;;5095357;28;20200;-63
2021/09/14 03:36:00;;;;;;;13.20;11.33;;;19.30;99.90;;;;;;5095403;28;20188;-63
2021/09/14 03:38:25;;;;;;;12.43;10.53;;;19.30;99.90;;;;;;5095347;28;20169;-63
2021/09/14 03:40:51;;;;;;;15.33;11.50;;;19.30;99.90;;;;;;5093934;28;20184;-63
2021/09/14 03:43:18;;;;;;;12.20;10.93;;;19.30;99.90;;;;;;5095179;28;20172;-64
2021/09/14 03:45:46;;;;;;;13.80;11.90;;;19.20;99.90;;;;;;5093642;28;20180;-63
2021/09/14 03:48:13;;;;;;;13.47;10.90;;;19.20;99.90;;;;;;5095227;28;20412;-64
2021/09/14 03:50:38;;;;;;;15.93;10.70;;;19.20;99.90;;;;;;5094695;28;20487;-63
2021/09/14 03:53:04;;;;;;;11.20;10.10;;;19.20;99.90;;;;;;5094919;28;20534;-64
2021/09/14 03:55:30;;;;;;;13.70;11.10;;;19.20;99.90;;;;;;5094978;28;20188;-63
2021/09/14 03:57:56;;;;;;;13.00;10.67;;;19.20;99.90;;;;;;5094814;28;20425;-63
2021/09/14 04:00:21;;;;;;;15.87;12.13;;;19.20;99.90;;;;;;5094650;28;20211;-63
2021/09/14 04:10:43;;;;;;;15.97;12.37;;;19.20;99.90;;;;;;5085874;28;20468;-63
2021/09/14 04:13:10;;;;;;;17.20;13.27;;;19.20;99.90;;;;;;5094553;28;20218;-63
2021/09/14 04:15:36;;;;;;;14.97;11.70;;;19.20;99.90;;;;;;5093581;28;20436;-63
2021/09/14 04:18:05;;;;;;;13.37;11.07;;;19.10;99.90;;;;;;5094421;28;20421;-63
2021/09/14 04:20:32;;;;;;;13.53;11.40;;;19.20;99.90;;;;;;5094463;28;20886;-63
2021/09/14 04:22:58;;;;;;;12.57;10.87;;;19.20;99.90;;;;;;5094372;28;20794;-63
2021/09/14 04:25:23;;;;;;;17.03;11.70;;;19.20;99.90;;;;;;5091733;28;20464;-63
2021/09/14 04:27:49;;;;;;;15.83;12.47;;;19.20;99.90;;;;;;5092538;28;20422;-63
2021/09/14 04:30:15;;;;;;;14.77;11.30;;;19.20;99.90;;;;;;5091134;28;20189;-63
2021/09/14 04:32:41;;;;;;;13.50;12.10;;;19.20;99.90;;;;;;5092232;28;20461;-64
2021/09/14 04:35:07;;;;;;;16.90;12.63;;;19.10;99.90;;;;;;5090837;28;20410;-64
2021/09/14 04:37:33;;;;;;;14.70;11.33;;;19.20;99.90;;;;;;5091599;28;20224;-63
2021/09/14 04:39:58;;;;;;;14.17;12.40;;;19.20;99.90;;;;;;5091632;28;20429;-64
2021/09/14 04:42:24;;;;;;;15.70;11.87;;;19.10;99.90;;;;;;5091820;28;20243;-63
2021/09/14 04:44:49;;;;;;;15.03;12.40;;;19.10;99.90;;;;;;5091904;28;20178;-63
2021/09/14 04:47:15;;;;;;;18.10;12.80;;;19.10;99.90;;;;;;5094427;28;20208;-63
2021/09/14 04:49:41;;;;;;;14.43;12.00;;;19.10;99.90;;;;;;5093727;28;20185;-64
2021/09/14 04:52:07;;;;;;;17.00;12.27;;;19.10;99.90;;;;;;5092556;28;20241;-63
2021/09/14 04:54:37;;;;;;;19.47;12.80;;;19.10;99.90;;;;;;5093144;28;20220;-64
2021/09/14 04:57:04;;;;;;;14.40;12.20;;;19.10;99.90;;;;;;5093015;28;20544;-63
2021/09/14 04:59:30;;;;;;;14.77;11.83;;;19.20;99.90;;;;;;5092878;28;20431;-63
2021/09/14 05:01:57;;;;;;;13.87;12.13;;;19.10;99.90;;;;;;5094493;28;20469;-63
2021/09/14 05:04:23;;;;;;;20.57;12.53;;;19.10;99.90;;;;;;5091350;28;20449;-63
2021/09/14 05:06:49;;;;;;;14.17;12.37;;;19.10;99.90;;;;;;5092719;28;20520;-64
2021/09/14 05:09:15;;;;;;;14.53;11.60;;;19.10;99.90;;;;;;5092515;28;20425;-64
2021/09/14 05:11:41;;;;;;;16.63;12.00;;;19.20;99.90;;;;;;5093315;28;20208;-64
2021/09/14 05:14:06;;;;;;;15.30;12.07;;;19.20;99.90;;;;;;5093364;28;20472;-64
2021/09/14 05:16:32;;;;;;;18.07;12.83;;;19.20;99.90;;;;;;5092981;28;20205;-64
2021/09/14 05:18:58;;;;;;;16.83;13.07;;;19.20;99.90;;;;;;5093718;28;20556;-64
2021/09/14 05:21:24;;;;;;;14.30;11.67;;;19.20;99.90;;;;;;5093901;28;20201;-63
2021/09/14 05:23:50;;;;;;;18.40;11.53;;;19.30;99.90;;;;;;5093280;28;20180;-64
2021/09/14 05:26:15;;;;;;;17.90;12.43;;;19.30;99.90;;;;;;5093879;28;20581;-63
2021/09/14 05:28:43;;;;;;;14.90;13.10;;;19.30;99.90;;;;;;5093633;28;20165;-64
2021/09/14 05:31:09;;;;;;;14.83;11.50;;;19.30;99.90;;;;;;5091683;28;20801;-63
2021/09/14 05:33:36;;;;;;;14.23;11.23;;;19.30;99.90;;;;;;5091129;28;20473;-64
2021/09/14 05:36:02;;;;;;;19.10;12.83;;;19.30;99.90;;;;;;5093367;28;20480;-64
2021/09/14 05:38:28;;;;;;;17.30;12.87;;;19.40;99.90;;;;;;5093085;28;20466;-63
2021/09/14 05:40:56;;;;;;;17.90;12.90;;;19.40;99.90;;;;;;5091221;28;20421;-65
2021/09/14 05:43:24;;;;;;;16.67;12.50;;;19.40;99.90;;;;;;5092806;28;20173;-63
2021/09/14 05:45:50;;;;;;;21.73;14.30;;;19.40;99.90;;;;;;5092704;28;20938;-63
2021/09/14 05:48:16;;;;;;;15.30;12.80;;;19.50;99.90;;;;;;5090634;28;21322;-65
2021/09/14 05:50:42;;;;;;;16.27;12.60;;;19.50;99.90;;;;;;5090349;28;20452;-63
2021/09/14 05:53:08;;;;;;;18.33;13.47;;;19.50;99.90;;;;;;5089127;28;20251;-64
2021/09/14 05:55:40;;;;;;;15.93;12.00;;;19.60;99.90;;;;;;5091875;28;20802;-63
2021/09/14 05:58:08;;;;;;;18.27;13.63;;;19.60;99.90;;;;;;5090302;28;20195;-63
2021/09/14 06:00:35;;;;;;;18.40;13.50;;;19.70;99.90;;;;;;5092269;28;20444;-64
2021/09/14 06:03:01;;;;;;;13.40;12.00;;;19.70;99.90;;;;;;5091375;28;20450;-63
2021/09/14 06:05:26;;;;;;;15.60;13.20;;;19.80;99.90;;;;;;5087895;28;20836;-65
2021/09/14 06:07:53;;;;;;;14.83;11.70;;;19.80;99.90;;;;;;5087511;28;20326;-63
2021/09/14 06:10:19;;;;;;;19.13;13.70;;;19.90;99.90;;;;;;5087301;28;20264;-63
2021/09/14 06:12:45;;;;;;;19.53;13.20;;;20.00;99.90;;;;;;5089213;28;20556;-63
2021/09/14 06:15:10;;;;;;;19.47;14.00;;;20.00;99.90;;;;;;5091260;28;20420;-63
2021/09/14 06:17:37;;;;;;;20.60;14.23;;;20.10;99.90;;;;;;5092048;28;20561;-63
2021/09/14 06:20:04;;;;;;;20.13;13.63;;;20.20;99.90;;;;;;5093321;28;20183;-63
2021/09/14 06:22:29;;;;;;;17.53;13.00;;;20.20;99.90;;;;;;5095781;28;20800;-64
2021/09/14 06:24:55;;;;;;;18.53;13.67;;;20.30;99.90;;;;;;5093853;28;20418;-64
2021/09/14 06:27:21;;;;;;;17.00;14.20;;;20.30;99.90;;;;;;5096302;28;20198;-63
2021/09/14 06:29:47;;;;;;;16.57;13.50;;;20.40;99.90;;;;;;5094648;28;20186;-63
2021/09/14 06:32:12;;;;;;;16.80;14.03;;;20.40;99.90;;;;;;5094184;28;20616;-63
2021/09/14 06:34:38;;;;;;;17.73;14.07;;;20.50;99.90;;;;;;5095763;28;20707;-63
2021/09/14 06:37:06;;;;;;;22.07;15.60;;;20.50;99.90;;;;;;5095122;28;20277;-63
2021/09/14 06:39:32;;;;;;;17.67;14.60;;;20.60;99.90;;;;;;5088547;28;20801;-63
2021/09/14 06:41:57;;;;;;;16.57;13.63;;;20.60;99.90;;;;;;5114274;27;20493;-63
2021/09/14 06:44:23;;;;;;;17.33;15.13;;;20.70;99.90;;;;;;5094766;28;20404;-64
2021/09/14 06:46:52;;;;;;;24.53;14.53;;;20.70;99.90;;;;;;5094437;28;20584;-63
2021/09/14 06:49:18;;;;;;;17.87;14.30;;;20.80;99.90;;;;;;5095737;28;20411;-64
2021/09/14 06:51:44;;;;;;;27.93;15.47;;;20.80;99.90;;;;;;5094916;28;20813;-63
2021/09/14 06:54:09;;;;;;;16.43;13.83;;;20.90;99.90;;;;;;5094270;28;20464;-63
2021/09/14 06:56:35;;;;;;;15.30;13.30;;;21.00;99.90;;;;;;5095217;28;20207;-63
2021/09/14 06:59:01;;;;;;;17.23;13.90;;;21.00;99.90;;;;;;5092444;28;20209;-63
2021/09/14 07:01:27;;;;;;;17.90;13.90;;;21.10;99.90;;;;;;5083246;28;20985;-63
2021/09/14 07:03:54;;;;;;;19.10;14.73;;;21.20;99.90;;;;;;5092959;28;20561;-63
2021/09/14 07:06:20;;;;;;;15.50;13.50;;;21.30;99.90;;;;;;5080993;28;20484;-63
2021/09/14 07:08:47;;;;;;;18.13;14.70;;;21.40;99.90;;;;;;5094988;28;20828;-63
2021/09/14 07:11:13;;;;;;;17.50;14.10;;;21.40;99.90;;;;;;5094894;28;20497;-63
2021/09/14 07:13:40;;;;;;;21.33;14.90;;;21.50;99.90;;;;;;5090130;28;20465;-63
2021/09/14 07:16:06;;;;;;;18.50;15.23;;;21.60;99.90;;;;;;5093003;28;20460;-63
2021/09/14 07:18:32;;;;;;;16.80;13.87;;;21.70;99.90;;;;;;5092131;28;20421;-65
2021/09/14 07:20:58;;;;;;;19.20;14.60;;;21.80;99.90;;;;;;5096022;28;20432;-63
2021/09/14 07:23:24;;;;;;;16.67;13.37;;;21.80;99.90;;;;;;5081879;28;20813;-63
2021/09/14 07:25:50;;;;;;;15.73;14.10;;;21.90;99.90;;;;;;5089724;28;20436;-63
2021/09/14 07:28:16;;;;;;;17.17;15.33;;;22.00;99.90;;;;;;5089735;28;20409;-64
2021/09/14 07:30:42;;;;;;;16.63;13.53;;;22.10;99.90;;;;;;5078214;28;20436;-63
2021/09/14 07:33:09;;;;;;;16.20;12.87;;;22.20;99.90;;;;;;5071279;28;20962;-63
2021/09/14 07:35:35;;;;;;;15.70;14.10;;;22.30;99.90;;;;;;5105107;28;20445;-63
2021/09/14 07:38:02;;;;;;;23.60;13.27;;;22.40;99.90;;;;;;5094176;28;20945;-65
2021/09/14 07:40:28;;;;;;;16.20;13.83;;;22.50;99.90;;;;;;5093701;28;20416;-63
2021/09/14 07:42:55;;;;;;;20.00;14.90;;;22.60;99.90;;;;;;5094541;28;20853;-63
2021/09/14 07:45:21;;;;;;;15.33;13.07;;;22.70;99.90;;;;;;5092725;28;20405;-63
2021/09/14 07:47:47;;;;;;;17.50;13.50;;;22.70;99.90;;;;;;5096048;28;20461;-63
2021/09/14 07:50:13;;;;;;;16.50;13.53;;;22.80;99.90;;;;;;5093744;28;20777;-65
2021/09/14 07:52:39;;;;;;;17.23;12.93;;;22.90;99.90;;;;;;5094215;28;20476;-63
2021/09/14 07:55:06;;;;;;;17.67;13.87;;;23.10;99.90;;;;;;5092773;28;20863;-64
2021/09/14 07:57:32;;;;;;;17.47;14.33;;;23.20;99.90;;;;;;5092589;28;20211;-65
2021/09/14 07:59:57;;;;;;;15.43;13.00;;;23.30;99.90;;;;;;5089816;28;20425;-63
2021/09/14 08:02:23;;;;;;;13.30;11.90;;;23.40;99.90;;;;;;5093250;28;20208;-64
2021/09/14 08:04:50;;;;;;;13.23;11.80;;;23.50;99.90;;;;;;5090099;28;20188;-63
2021/09/14 08:07:16;;;;;;;18.67;11.93;;;23.60;99.90;;;;;;5093089;28;20452;-63
2021/09/14 08:09:41;;;;;;;16.20;13.03;;;23.70;99.90;;;;;;5095231;28;21007;-65
2021/09/14 08:12:07;;;;;;;13.20;11.80;;;23.80;99.90;;;;;;5090531;28;20532;-63
2021/09/14 08:14:32;;;;;;;14.63;12.87;;;24.00;99.60;;;;;;5093698;28;20737;-63
2021/09/14 08:16:58;;;;;;;12.60;11.07;;;24.10;99.40;;;;;;5090707;28;20566;-63
2021/09/14 08:19:24;;;;;;;12.33;11.10;;;24.30;99.90;;;;;;5091130;28;20602;-64
2021/09/14 08:21:50;;;;;;;12.07;10.87;;;24.40;99.00;;;;;;5087126;28;20213;-63
2021/09/14 08:24:16;;;;;;;11.43;10.23;;;24.70;98.50;;;;;;5082869;28;20188;-64
2021/09/14 08:26:42;;;;;;;12.10;9.43;;;25.20;97.70;;;;;;5089144;28;20285;-64
2021/09/14 08:29:08;;;;;;;10.37;9.27;;;25.70;97.00;;;;;;5090436;28;20458;-64
2021/09/14 08:31:34;;;;;;;11.33;8.73;;;26.50;97.00;;;;;;5088969;28;20503;-64
2021/09/14 08:34:00;;;;;;;12.27;9.00;;;27.30;96.70;;;;;;5089627;28;20897;-64
2021/09/14 08:36:25;;;;;;;12.03;10.63;;;28.10;95.30;;;;;;5088756;28;20469;-63
2021/09/14 08:38:52;;;;;;;11.27;8.90;;;28.60;93.70;;;;;;5089863;28;20184;-64
2021/09/14 08:41:18;;;;;;;9.73;8.73;;;28.90;93.00;;;;;;5089195;28;20200;-65
2021/09/14 08:43:46;;;;;;;10.97;9.47;;;29.10;92.80;;;;;;5091157;28;20952;-64
2021/09/14 08:46:15;;;;;;;12.27;9.17;;;29.10;92.70;;;;;;5091042;28;20961;-63
2021/09/14 08:48:40;;;;;;;10.07;9.07;;;29.00;92.00;;;;;;5089567;28;20397;-63
2021/09/14 08:51:07;;;;;;;9.43;8.43;;;28.90;92.10;;;;;;5088136;28;21080;-65
2021/09/14 08:53:35;;;;;;;9.50;8.17;;;28.70;91.90;;;;;;5084161;28;20243;-65
2021/09/14 08:56:02;;;;;;;10.57;9.43;;;28.60;91.90;;;;;;5087023;28;20456;-64
2021/09/14 08:58:27;;;;;;;10.67;8.97;;;28.50;93.30;;;;;;5086747;28;20452;-65
2021/09/14 09:00:53;;;;;;;8.57;7.77;;;28.30;92.40;;;;;;5087780;28;20433;-63
2021/09/14 09:03:30;;;;;;;12.50;7.90;;;28.20;92.20;;;;;;5088064;28;20703;-66
2021/09/14 09:05:59;;;;;;;8.30;7.50;;;28.00;92.20;;;;;;5083190;28;20612;-64
2021/09/14 09:08:24;;;;;;;8.67;7.77;;;27.90;91.50;;;;;;5084683;28;20455;-65
2021/09/14 09:11:02;;;;;;;9.83;7.30;;;27.70;91.80;;;;;;5082551;28;20432;-63
2021/09/14 09:13:53;;;;;;;8.50;7.70;;;27.50;91.50;;;;;;5085323;28;20211;-64
2021/09/14 09:16:26;;;;;;;10.33;7.33;;;27.40;91.80;;;;;;5086279;28;20504;-63
2021/09/14 09:18:59;;;;;;;10.23;7.93;;;27.40;92.60;;;;;;5090099;28;20409;-65
2021/09/14 09:21:33;;;;;;;8.33;7.50;;;27.30;92.20;;;;;;5087785;28;20449;-63
2021/09/14 09:24:02;;;;;;;7.37;6.67;;;27.10;91.80;;;;;;5086968;28;20527;-63
2021/09/14 09:26:39;;;;;;;8.50;7.70;;;26.90;91.90;;;;;;5085480;28;20460;-63
2021/09/14 09:29:07;;;;;;;8.10;7.30;;;26.90;92.00;;;;;;5085097;28;20784;-63
2021/09/14 09:31:42;;;;;;;8.57;7.63;;;26.70;92.20;;;;;;5088677;28;20456;-63
2021/09/14 09:34:10;;;;;;;9.20;8.20;;;26.70;91.90;;;;;;5087266;28;20452;-62
2021/09/14 09:36:39;;;;;;;9.00;7.70;;;26.50;92.10;;;;;;5085601;28;20492;-63
2021/09/14 09:39:10;;;;;;;7.60;6.93;;;26.40;92.30;;;;;;5089095;28;20557;-63
2021/09/14 09:41:39;;;;;;;8.77;7.80;;;26.40;92.30;;;;;;5090451;28;20459;-63
2021/09/14 09:44:06;;;;;;;9.27;7.50;;;26.30;92.20;;;;;;5086621;28;20509;-64
2021/09/14 09:46:32;;;;;;;8.13;7.30;;;26.20;92.30;;;;;;5091936;28;20499;-63
2021/09/14 09:49:01;;;;;;;9.37;7.80;;;26.20;92.60;;;;;;5089207;28;20464;-63
2021/09/14 09:51:28;;;;;;;7.97;7.10;;;26.10;92.30;;;;;;5091961;28;20218;-63
2021/09/14 09:53:54;;;;;;;9.13;7.40;;;26.10;92.80;;;;;;5090931;28;20524;-65
2021/09/14 09:56:22;;;;;;;7.77;7.07;;;26.10;93.30;;;;;;5092462;28;20474;-64
2021/09/14 09:58:49;;;;;;;9.60;8.70;;;26.20;93.00;;;;;;5085304;28;20461;-62
2021/09/14 10:01:16;;;;;;;10.07;7.00;;;26.20;92.60;;;;;;5091910;28;20447;-63
2021/09/14 10:03:58;;;;;;;8.30;7.10;;;26.30;92.70;;;;;;5092060;28;20657;-63
2021/09/14 10:06:29;;;;;;;9.23;7.90;;;26.20;92.40;;;;;;5097883;28;20923;-65
2021/09/14 10:08:56;;;;;;;7.50;6.80;;;26.20;92.70;;;;;;5088764;28;20472;-62
2021/09/14 10:11:27;;;;;;;7.67;6.70;;;26.20;92.40;;;;;;5093332;28;20446;-64
2021/09/14 10:14:15;;;;;;;9.53;7.20;;;26.20;92.70;;;;;;5321417;22;20622;-62
2021/09/14 10:16:46;;;;;;;9.50;6.90;;;26.30;93.80;;;;;;5081223;28;20776;-63
2021/09/14 10:19:14;;;;;;;8.63;7.53;;;26.40;92.70;;;;;;5091900;28;20843;-63
2021/09/14 10:21:57;;;;;;;7.87;6.93;;;26.40;92.50;;;;;;5090045;28;20427;-63
2021/09/14 10:24:24;;;;;;;8.10;7.27;;;26.30;92.10;;;;;;5096231;28;20503;-62
2021/09/14 10:27:01;;;;;;;9.90;7.07;;;26.20;92.20;;;;;;5079576;28;20947;-62
2021/09/14 10:29:26;;;;;;;7.73;6.97;;;26.30;92.80;;;;;;5089703;28;20457;-63
2021/09/14 10:32:03;;;;;;;7.93;7.23;;;26.40;92.70;;;;;;5089332;28;20427;-63
2021/09/14 10:34:29;;;;;;;8.73;7.93;;;26.40;92.20;;;;;;5100480;28;20223;-62
2021/09/14 10:37:16;;;;;;;10.13;6.73;;;26.50;92.40;;;;;;5075522;28;20435;-64
2021/09/14 10:39:43;;;;;;;9.03;6.77;;;26.40;91.90;;;;;;5099095;28;20544;-62
2021/09/14 10:42:34;;;;;;;11.10;7.00;;;26.30;92.20;;;;;;5090447;28;20435;-62
2021/09/14 10:45:10;;;;;;;8.23;7.43;;;26.40;92.70;;;;;;5068783;28;20452;-62
2021/09/14 10:47:37;;;;;;;11.30;8.13;;;26.50;93.10;;;;;;5081434;28;20424;-63
2021/09/14 10:50:04;;;;;;;7.77;6.93;;;26.60;92.20;;;;;;5095471;28;20514;-63
2021/09/14 10:52:37;;;;;;;7.47;6.40;;;26.50;92.10;;;;;;5081778;28;20475;-63
2021/09/14 10:55:14;;;;;;;7.20;6.60;;;26.40;91.80;;;;;;5094825;28;20820;-63
2021/09/14 10:57:42;;;;;;;7.90;6.50;;;26.40;92.40;;;;;;5092765;28;20428;-63
2021/09/14 11:00:10;;;;;;;7.40;6.30;;;26.40;92.00;;;;;;5090335;28;21027;-64
2021/09/14 11:02:37;;;;;;;9.20;6.10;;;26.40;92.20;;;;;;5097316;28;20480;-63
2021/09/14 11:05:04;;;;;;;8.00;7.30;;;26.40;92.00;;;;;;5095752;28;20547;-62
2021/09/14 11:07:31;;;;;;;7.57;6.30;;;26.40;92.30;;;;;;5072543;28;20429;-66
2021/09/14 11:09:59;;;;;;;6.60;5.73;;;26.50;92.20;;;;;;5089431;28;20781;-67
2021/09/14 11:12:27;;;;;;;8.37;6.27;;;26.60;92.20;;;;;;5070047;28;20424;-66
2021/09/14 11:14:57;;;;;;;6.77;6.10;;;26.60;92.40;;;;;;5094520;28;20529;-62
2021/09/14 11:17:24;;;;;;;7.63;5.63;;;26.60;92.00;;;;;;5097330;28;20509;-62
2021/09/14 11:19:51;;;;;;;6.97;6.00;;;26.60;92.40;;;;;;5095111;28;20495;-62
2021/09/14 11:22:31;;;;;;;6.67;5.97;;;26.80;92.40;;;;;;5090021;28;20452;-62
2021/09/14 11:24:57;;;;;;;6.57;5.97;;;26.90;92.10;;;;;;5084783;28;20468;-67
2021/09/14 11:27:24;;;;;;;6.50;5.90;;;26.90;91.80;;;;;;5086943;28;20433;-67
2021/09/14 11:29:50;;;;;;;5.30;4.90;;;26.80;91.60;;;;;;5086809;28;20457;-65
2021/09/14 11:32:16;;;;;;;6.07;5.50;;;26.70;91.50;;;;;;5092194;28;20889;-62
2021/09/14 11:34:42;;;;;;;5.30;4.67;;;26.70;91.80;;;;;;5091163;28;20572;-63
2021/09/14 11:37:07;;;;;;;7.40;6.40;;;26.70;91.70;;;;;;5074372;28;20427;-66
2021/09/14 11:39:37;;;;;;;6.33;5.67;;;26.80;91.60;;;;;;5079839;28;20276;-66
2021/09/14 11:42:03;;;;;;;6.67;6.07;;;26.80;91.40;;;;;;5080977;28;20175;-63
2021/09/14 11:44:29;;;;;;;6.63;5.93;;;26.70;91.50;;;;;;5097018;28;20461;-62
2021/09/14 11:47:05;;;;;;;7.43;6.73;;;26.70;91.40;;;;;;5089501;28;20416;-63
2021/09/14 11:49:30;;;;;;;7.30;6.40;;;26.70;91.50;;;;;;5087014;28;20266;-65
2021/09/14 11:52:01;;;;;;;7.33;6.63;;;26.60;91.50;;;;;;5086871;28;20427;-66
2021/09/14 11:54:36;;;;;;;6.70;5.97;;;26.50;91.60;;;;;;5087297;28;20828;-62
2021/09/14 11:57:03;;;;;;;7.33;6.70;;;26.60;91.60;;;;;;5074237;28;20442;-62
2021/09/14 11:59:37;;;;;;;6.83;6.13;;;26.60;91.90;;;;;;5088433;28;20463;-66
2021/09/14 12:02:04;;;;;;;7.10;5.93;;;26.80;91.50;;;;;;5075898;28;20930;-65
2021/09/14 12:04:30;;;;;;;7.10;6.37;;;26.80;91.80;;;;;;5096733;28;21060;-62
2021/09/14 12:06:58;;;;;;;7.00;6.20;;;26.80;91.60;;;;;;5083439;28;20917;-64
2021/09/14 12:09:30;;;;;;;6.43;5.87;;;26.70;91.40;;;;;;5098218;28;20530;-62
2021/09/14 12:12:00;;;;;;;7.10;6.00;;;26.70;91.40;;;;;;5100613;28;20409;-62
2021/09/14 12:14:27;;;;;;;6.70;6.00;;;26.70;92.00;;;;;;5091671;28;20543;-66
2021/09/14 12:17:02;;;;;;;8.43;6.47;;;26.80;91.30;;;;;;5091119;28;20454;-63
2021/09/14 12:19:33;;;;;;;7.67;6.83;;;26.80;91.30;;;;;;5092385;28;20459;-62
2021/09/14 12:21:58;;;;;;;7.00;6.40;;;26.70;91.20;;;;;;5095398;28;20422;-66
2021/09/14 12:24:24;;;;;;;7.70;6.17;;;26.60;91.50;;;;;;5084168;28;20465;-66
2021/09/14 12:26:51;;;;;;;7.40;6.70;;;26.50;91.40;;;;;;5084010;28;20637;-64
2021/09/14 12:29:18;;;;;;;8.97;7.20;;;26.50;91.70;;;;;;5075459;28;20196;-66
2021/09/14 12:31:44;;;;;;;6.80;6.10;;;26.50;91.60;;;;;;5091136;28;20417;-66
2021/09/14 12:34:10;;;;;;;6.53;5.90;;;26.40;91.40;;;;;;5072751;28;20571;-65
2021/09/14 12:36:37;;;;;;;7.10;6.40;;;26.40;91.50;;;;;;5095144;28;20555;-67
2021/09/14 12:39:03;;;;;;;7.47;6.63;;;26.40;91.50;;;;;;5090383;28;20287;-66
2021/09/14 12:41:29;;;;;;;6.83;6.20;;;26.50;92.20;;;;;;5091725;28;20428;-66
2021/09/14 12:43:55;;;;;;;10.93;7.17;;;26.60;91.50;;;;;;5098442;28;20987;-66
2021/09/14 12:46:20;;;;;;;7.30;6.40;;;26.60;91.90;;;;;;5098788;28;20191;-66
2021/09/14 12:48:46;;;;;;;7.90;7.10;;;26.70;91.40;;;;;;5087373;28;20472;-66
2021/09/14 12:51:13;;;;;;;7.80;6.40;;;26.80;91.90;;;;;;5092260;28;20188;-63
2021/09/14 12:53:39;;;;;;;6.70;6.10;;;27.00;91.90;;;;;;5093521;28;20231;-63
2021/09/14 12:56:06;;;;;;;7.63;6.80;;;27.10;91.30;;;;;;5093236;28;20576;-63
2021/09/14 12:58:32;;;;;;;7.10;6.50;;;27.00;90.90;;;;;;5090774;28;20433;-62
2021/09/14 13:00:58;;;;;;;7.30;6.70;;;26.90;91.00;;;;;;5092280;28;20746;-63
2021/09/14 13:03:24;;;;;;;6.70;6.10;;;26.80;91.30;;;;;;5077273;28;20573;-62
2021/09/14 13:05:49;;;;;;;16.23;6.60;;;26.80;91.20;;;;;;5089724;28;20271;-62
2021/09/14 13:08:15;;;;;;;9.60;6.60;;;26.90;91.10;;;;;;5094103;28;20177;-62
2021/09/14 13:10:40;;;;;;;7.80;6.93;;;26.90;91.30;;;;;;5097582;28;20172;-63
2021/09/14 13:18:35;;;;;;;7.30;6.70;;;27.40;91.80;;;;;;5094639;28;21205;-67
2021/09/14 13:21:01;;;;;;;7.80;6.80;;;27.50;91.60;;;;;;5076319;28;20748;-67
2021/09/14 13:23:27;;;;;;;7.73;6.87;;;27.60;91.50;;;;;;5096530;28;20207;-66
2021/09/14 13:25:53;;;;;;;7.00;6.30;;;27.60;91.30;;;;;;5108160;28;20439;-63
2021/09/14 13:28:19;;;;;;;7.00;6.30;;;27.70;91.20;;;;;;5097173;28;20203;-67
2021/09/14 13:30:45;;;;;;;6.07;5.57;;;27.80;91.00;;;;;;5066511;28;20905;-67
2021/09/14 13:33:10;;;;;;;7.00;5.97;;;27.80;90.60;;;;;;5071562;28;20455;-63
2021/09/14 13:35:36;;;;;;;7.57;6.87;;;27.80;90.60;;;;;;5093884;28;20375;-63
2021/09/14 13:38:03;;;;;;;8.73;6.40;;;27.90;90.60;;;;;;5092423;28;20176;-68
2021/09/14 13:40:28;;;;;;;6.47;5.90;;;27.90;90.50;;;;;;5091761;28;20586;-67
2021/09/14 13:42:56;;;;;;;7.30;5.77;;;27.90;90.50;;;;;;5096292;28;20445;-66